Pagina principale
METAR-TAF:

METAR-TAF

Aeroporti :

Aeroporto di Lamezia Terme

Lamezia Terme, Italia

latitudine: 38-54N, longitudine: 016-15E, altezza: 15 m

Osservazione

Il bollettino è stato emesso 40 minuti fa, alle 04:50 UTC
Vento 2 kt da direzioni variabili
Temperature 21°C
Umidità 88%
Pressione 1013 hPa
Visibilità 10 km o più

METAR: LICA 030450Z AUTO VRB02KT 9999 NCD 21/19 Q1013

Ora: 07:30 (05:30 UTC)

Previsione

Il bollettino è stato emesso 6 ore e 30 minuti fa, alle 23:00 UTC
Previsione valida dal 03 alle 00 UTC al 03 alle 24 UTC
Vento 5 kt da direzioni variabili
Visibilità 10 km o più
nessuna nube inferiore a 1500 m e nessun cumulonembo
Evoluzione graduale
dal 03 alle 08 UTC al 03 alle 10 UTC
Vento 12 kt da ovest
Evoluzione graduale
dal 03 alle 18 UTC al 03 alle 20 UTC
Vento 5 kt da direzioni variabili

TAF: LICA 022300Z 0300/0324 VRB05KT CAVOK BECMG 0308/0310 27012KT BECMG 0318/0320 VRB05KT

Osservazioni e previsioni meteorologiche di più di 4000 aeroporti (messaggi METAR e TAF).

Le stazioni disponibili sono rappresentate dai dischi gialli e rossi sulla carta.

Puntare il mouse per vedere il nome della stazione.

Clicca sopra per visualizzare le osservazioni e previsioni meteorologiche.

Per cambiare la mappa : fare clic sui pulsanti verdi con una croce nera per ingrandire, il pulsante verde con un trattino per diminuire, o sulla freccia verde per le mappe adiacenti.


METAR-TAF: